createdAt,value
2019-05-14T00:01:03.320Z,8.20
2019-05-14T00:03:32.818Z,8.20
2019-05-14T00:06:02.406Z,8.20
2019-05-14T00:08:31.849Z,8.20
2019-05-14T00:11:01.607Z,8.20
2019-05-14T00:13:32.137Z,8.10
2019-05-14T00:16:01.885Z,8.20
2019-05-14T00:18:31.729Z,8.10
2019-05-14T00:21:02.237Z,8.10
2019-05-14T00:23:32.094Z,8.10
2019-05-14T00:26:02.003Z,8.00
2019-05-14T00:28:31.862Z,8.00
2019-05-14T00:31:02.933Z,8.00
2019-05-14T00:33:32.448Z,7.90
2019-05-14T00:36:02.268Z,7.80
2019-05-14T00:38:31.738Z,7.80
2019-05-14T00:41:02.005Z,7.80
2019-05-14T00:43:32.336Z,7.80
2019-05-14T00:46:02.211Z,7.70
2019-05-14T00:48:32.035Z,7.70
2019-05-14T00:51:02.418Z,7.70
2019-05-14T00:53:32.239Z,7.70
2019-05-14T00:56:02.400Z,7.70
2019-05-14T00:58:32.390Z,7.60
2019-05-14T01:01:01.916Z,7.60
2019-05-14T01:03:32.474Z,7.60
2019-05-14T01:06:02.936Z,7.60
2019-05-14T01:08:32.565Z,7.50
2019-05-14T01:11:01.902Z,7.50
2019-05-14T01:13:31.450Z,7.40
2019-05-14T01:16:01.579Z,7.40
2019-05-14T01:18:32.208Z,7.40
2019-05-14T01:21:01.901Z,7.50
2019-05-14T01:23:32.287Z,7.40
2019-05-14T01:26:02.442Z,7.40
2019-05-14T01:28:32.348Z,7.40
2019-05-14T01:31:01.722Z,7.40
2019-05-14T01:33:31.880Z,7.40
2019-05-14T01:36:02.067Z,7.40
2019-05-14T01:38:31.769Z,7.30
2019-05-14T01:41:01.949Z,7.30
2019-05-14T01:43:31.721Z,7.30
2019-05-14T01:46:01.907Z,7.20
2019-05-14T01:48:31.595Z,7.20
2019-05-14T01:51:01.553Z,7.20
2019-05-14T01:53:31.509Z,7.20
2019-05-14T01:56:01.675Z,7.20
2019-05-14T01:58:31.461Z,7.20
2019-05-14T02:01:02.111Z,7.10
2019-05-14T02:03:32.291Z,7.10
2019-05-14T02:06:01.934Z,7.10
2019-05-14T02:08:32.325Z,7.00
2019-05-14T02:11:02.027Z,7.00
2019-05-14T02:13:32.182Z,7.00
2019-05-14T02:16:02.418Z,7.00
2019-05-14T02:18:32.108Z,7.00
2019-05-14T02:21:01.793Z,6.90
2019-05-14T02:23:32.049Z,6.90
2019-05-14T02:26:02.497Z,6.90
2019-05-14T02:28:32.360Z,6.90
2019-05-14T02:31:03.422Z,6.80
2019-05-14T02:33:32.805Z,6.80
2019-05-14T02:36:02.151Z,6.80
2019-05-14T02:38:31.549Z,6.80
2019-05-14T02:41:01.258Z,6.70
2019-05-14T02:43:30.607Z,6.70
2019-05-14T02:46:10.731Z,6.70
2019-05-14T02:48:31.168Z,6.60
2019-05-14T02:51:00.503Z,6.70
2019-05-14T02:53:30.160Z,6.60
2019-05-14T02:55:59.993Z,6.60
2019-05-14T02:58:30.041Z,6.60
2019-05-14T03:01:00.694Z,6.60
2019-05-14T03:03:30.342Z,6.60
2019-05-14T03:06:00.762Z,6.50
2019-05-14T03:08:30.876Z,6.50
2019-05-14T03:11:00.713Z,6.40
2019-05-14T03:13:30.164Z,6.40
2019-05-14T03:15:59.769Z,6.40
2019-05-14T03:18:29.878Z,6.30
2019-05-14T03:21:00.781Z,6.30
2019-05-14T03:23:30.627Z,6.30
2019-05-14T03:26:00.805Z,6.20
2019-05-14T03:28:30.814Z,6.20
2019-05-14T03:31:03.265Z,6.10
2019-05-14T03:33:33.505Z,6.10
2019-05-14T03:36:08.923Z,6.10
2019-05-14T03:38:33.807Z,6.00
2019-05-14T03:41:03.138Z,6.00
2019-05-14T03:43:32.469Z,6.00
2019-05-14T03:46:01.870Z,6.00
2019-05-14T03:48:31.208Z,6.00
2019-05-14T03:51:00.711Z,6.00
2019-05-14T03:53:30.304Z,6.00
2019-05-14T03:56:00.777Z,5.90
2019-05-14T03:58:30.733Z,6.00
2019-05-14T04:01:02.510Z,5.90
2019-05-14T04:03:32.423Z,5.90
2019-05-14T04:06:03.875Z,5.90
2019-05-14T04:08:39.237Z,5.90
2019-05-14T04:11:09.791Z,5.90
2019-05-14T04:13:41.308Z,5.90
2019-05-14T04:16:14.572Z,5.90
2019-05-14T04:18:50.510Z,5.90
2019-05-14T04:21:21.764Z,5.90
2019-05-14T04:23:51.918Z,5.90
2019-05-14T04:26:21.782Z,5.90
2019-05-14T04:28:52.134Z,5.90
2019-05-14T04:31:22.139Z,5.80
2019-05-14T04:33:53.754Z,5.80
2019-05-14T04:36:23.158Z,5.80
2019-05-14T04:38:55.150Z,5.90
2019-05-14T04:41:23.677Z,5.90
2019-05-14T04:43:53.014Z,5.90
2019-05-14T04:46:22.360Z,5.90
2019-05-14T04:48:51.860Z,5.90
2019-05-14T04:51:21.210Z,5.90
2019-05-14T04:53:50.732Z,6.00
2019-05-14T04:56:20.306Z,6.00
2019-05-14T04:58:50.422Z,6.10
2019-05-14T05:01:20.991Z,6.20
2019-05-14T05:03:51.108Z,6.30
2019-05-14T05:06:20.448Z,6.40
2019-05-14T05:08:50.351Z,6.50
2019-05-14T05:11:21.174Z,6.60
2019-05-14T05:13:51.060Z,6.60
2019-05-14T05:16:20.402Z,6.60
2019-05-14T05:18:49.738Z,6.70
2019-05-14T05:21:19.458Z,6.70
2019-05-14T05:23:49.457Z,6.70
2019-05-14T05:26:18.921Z,6.80
2019-05-14T05:29:02.596Z,6.90
2019-05-14T05:31:19.493Z,6.90
2019-05-14T05:33:49.244Z,7.00
2019-05-14T05:36:18.772Z,7.10
2019-05-14T05:38:49.047Z,7.20
2019-05-14T05:41:19.200Z,7.30
2019-05-14T05:43:48.983Z,7.40
2019-05-14T05:46:19.179Z,7.50
2019-05-14T05:48:48.827Z,7.60
2019-05-14T05:51:18.993Z,7.70
2019-05-14T05:53:48.728Z,7.80
2019-05-14T05:56:18.743Z,7.90
2019-05-14T05:58:48.807Z,8.00
2019-05-14T06:01:19.558Z,8.10
2019-05-14T06:03:49.591Z,8.20
2019-05-14T06:06:19.402Z,8.30
2019-05-14T06:08:49.373Z,8.30
2019-05-14T06:11:19.580Z,8.40
2019-05-14T06:13:49.196Z,8.50
2019-05-14T06:16:18.871Z,8.50
2019-05-14T06:18:48.864Z,8.50
2019-05-14T06:21:18.998Z,8.60
2019-05-14T06:23:49.526Z,8.60
2019-05-14T06:26:19.533Z,8.60
2019-05-14T06:28:49.806Z,8.60
2019-05-14T06:31:19.673Z,8.70
2019-05-14T06:33:49.150Z,8.70
2019-05-14T06:36:19.791Z,8.70
2019-05-14T06:38:49.680Z,8.80
2019-05-14T06:41:19.463Z,8.80
2019-05-14T06:43:49.016Z,8.90
2019-05-14T06:46:19.518Z,8.90
2019-05-14T06:48:48.957Z,9.00
2019-05-14T06:51:20.098Z,9.10
2019-05-14T06:53:50.122Z,9.10
2019-05-14T06:56:21.792Z,9.20
2019-05-14T06:58:50.619Z,9.30
2019-05-14T07:01:19.964Z,9.40
2019-05-14T07:03:49.496Z,9.40
2019-05-14T07:06:19.067Z,9.60
2019-05-14T07:08:52.138Z,9.70
2019-05-14T07:11:19.464Z,9.80
2019-05-14T07:13:49.475Z,9.90
2019-05-14T07:16:19.777Z,10.00
2019-05-14T07:18:53.666Z,10.10
2019-05-14T07:21:20.454Z,10.20
2019-05-14T07:23:49.801Z,10.20
2019-05-14T07:26:19.566Z,10.30
2019-05-14T07:28:49.250Z,10.40
2019-05-14T07:31:18.913Z,10.50
2019-05-14T07:33:49.368Z,10.60
2019-05-14T07:36:19.229Z,10.70
2019-05-14T07:38:49.406Z,10.60
2019-05-14T07:41:19.525Z,10.60
2019-05-14T07:43:48.894Z,10.50
2019-05-14T07:46:19.147Z,10.70
2019-05-14T07:49:03.462Z,10.70
2019-05-14T07:51:19.788Z,10.80
2019-05-14T07:53:49.193Z,10.80
2019-05-14T07:56:18.940Z,10.80
2019-05-14T07:58:49.067Z,10.90
2019-05-14T08:01:19.024Z,10.90
2019-05-14T08:03:48.990Z,10.80
2019-05-14T08:06:19.060Z,10.70
2019-05-14T08:08:49.416Z,10.60
2019-05-14T08:11:19.290Z,10.60
2019-05-14T08:13:49.541Z,10.60
2019-05-14T08:16:19.396Z,10.60
2019-05-14T08:18:49.057Z,10.60
2019-05-14T08:21:19.446Z,10.70
2019-05-14T08:23:49.050Z,10.80
2019-05-14T08:26:19.362Z,10.80
2019-05-14T08:28:49.166Z,11.00
2019-05-14T08:31:18.997Z,11.20
2019-05-14T08:33:49.236Z,11.30
2019-05-14T08:36:19.112Z,11.40
2019-05-14T08:38:49.973Z,11.60
2019-05-14T08:41:20.155Z,11.70
2019-05-14T08:43:49.659Z,11.90
2019-05-14T08:46:19.428Z,12.00
2019-05-14T08:48:49.602Z,12.20
2019-05-14T08:51:19.500Z,12.30
2019-05-14T08:53:50.569Z,12.40
2019-05-14T08:56:20.047Z,12.50
2019-05-14T08:58:49.746Z,12.70
2019-05-14T09:01:22.283Z,12.90
2019-05-14T09:03:51.669Z,13.00
2019-05-14T09:06:21.036Z,13.10
2019-05-14T09:08:50.407Z,13.10
2019-05-14T09:11:24.414Z,13.20
2019-05-14T09:13:51.067Z,13.30
2019-05-14T09:16:37.047Z,13.30
2019-05-14T09:18:51.572Z,13.30
2019-05-14T09:21:20.946Z,13.40
2019-05-14T09:23:50.321Z,13.40
2019-05-14T09:26:19.699Z,13.20
2019-05-14T09:28:49.071Z,13.40
2019-05-14T09:31:19.709Z,13.60
2019-05-14T09:33:49.791Z,13.70
2019-05-14T09:36:24.026Z,13.70
2019-05-14T09:38:50.533Z,13.70
2019-05-14T09:41:20.550Z,13.70
2019-05-14T09:43:49.920Z,13.70
2019-05-14T09:46:19.295Z,13.50
2019-05-14T09:48:48.941Z,13.50
2019-05-14T09:51:18.688Z,13.70
2019-05-14T09:53:48.954Z,13.90
2019-05-14T09:56:19.035Z,14.00
2019-05-14T09:58:49.664Z,14.10
2019-05-14T10:01:19.638Z,14.10
2019-05-14T10:03:49.963Z,14.20
2019-05-14T10:06:20.934Z,14.30
2019-05-14T10:08:50.354Z,14.10
2019-05-14T10:11:19.734Z,14.10
2019-05-14T10:13:49.107Z,14.30
2019-05-14T10:16:19.010Z,14.40
2019-05-14T10:18:50.835Z,14.40
2019-05-14T10:21:19.614Z,14.50
2019-05-14T10:23:48.987Z,14.60
2019-05-14T10:26:18.776Z,14.60
2019-05-14T10:28:48.620Z,14.70
2019-05-14T10:31:18.672Z,14.70
2019-05-14T10:33:48.677Z,14.80
2019-05-14T10:36:19.207Z,15.00
2019-05-14T10:38:48.843Z,14.70
2019-05-14T10:41:18.751Z,14.80
2019-05-14T10:43:49.686Z,15.00
2019-05-14T10:46:19.613Z,15.00
2019-05-14T10:48:49.151Z,15.20
2019-05-14T10:51:18.520Z,15.30
2019-05-14T10:53:48.923Z,15.20
2019-05-14T10:56:19.582Z,15.30
2019-05-14T10:58:49.350Z,15.50
2019-05-14T11:01:22.207Z,15.70
2019-05-14T11:03:50.308Z,15.80
2019-05-14T11:06:19.702Z,15.80
2019-05-14T11:08:49.552Z,15.80
2019-05-14T11:11:19.004Z,15.80
2019-05-14T11:13:48.512Z,15.60
2019-05-14T11:16:19.119Z,15.80
2019-05-14T11:18:49.784Z,16.00
2019-05-14T11:21:25.951Z,16.20
2019-05-14T11:23:50.718Z,16.40
2019-05-14T11:26:20.098Z,16.60
2019-05-14T11:28:49.501Z,16.60
2019-05-14T11:31:19.472Z,16.60
2019-05-14T11:33:50.037Z,16.70
2019-05-14T11:36:19.644Z,16.60
2019-05-14T11:38:50.943Z,16.70
2019-05-14T11:41:20.409Z,17.00
2019-05-14T11:43:49.783Z,17.40
2019-05-14T11:46:33.463Z,17.50
2019-05-14T11:48:50.455Z,17.40
2019-05-14T11:51:40.506Z,17.40
2019-05-14T11:53:50.946Z,17.50
2019-05-14T11:56:20.320Z,17.90
2019-05-14T11:58:49.764Z,18.30
2019-05-14T12:01:19.231Z,18.70
2019-05-14T12:03:50.260Z,19.10
2019-05-14T12:06:19.833Z,19.20
2019-05-14T12:08:49.226Z,19.30
2019-05-14T12:11:19.609Z,19.40
2019-05-14T12:13:49.356Z,19.50
2019-05-14T12:16:18.740Z,19.80
2019-05-14T12:18:48.474Z,20.20
2019-05-14T12:21:17.970Z,20.40
2019-05-14T12:23:47.343Z,20.30
2019-05-14T12:26:19.197Z,20.30
2019-05-14T12:28:49.351Z,20.30
2019-05-14T12:31:19.106Z,20.40
2019-05-14T12:33:48.994Z,20.60
2019-05-14T12:36:19.301Z,20.10
2019-05-14T12:38:48.966Z,20.10
2019-05-14T12:41:19.329Z,20.40
2019-05-14T12:43:49.002Z,20.50
2019-05-14T12:46:20.110Z,20.80
2019-05-14T12:48:49.739Z,21.10
2019-05-14T12:51:19.236Z,21.00
2019-05-14T12:53:48.968Z,20.90
2019-05-14T12:56:18.923Z,20.60
2019-05-14T12:58:49.099Z,20.60
2019-05-14T13:01:20.020Z,20.70
2019-05-14T13:03:49.782Z,20.60
2019-05-14T13:06:19.367Z,20.40
2019-05-14T13:08:49.241Z,20.20
2019-05-14T13:11:18.875Z,20.00
2019-05-14T13:13:49.053Z,20.00
2019-05-14T13:16:19.245Z,20.00
2019-05-14T13:18:49.841Z,20.10
2019-05-14T13:21:19.821Z,20.20
2019-05-14T13:23:49.200Z,20.40
2019-05-14T13:26:19.196Z,20.60
2019-05-14T13:28:50.831Z,20.60
2019-05-14T13:31:19.922Z,20.70
2019-05-14T13:33:49.300Z,20.80
2019-05-14T13:36:20.296Z,21.00
2019-05-14T13:38:49.794Z,20.90
2019-05-14T13:41:19.537Z,20.90
2019-05-14T13:43:50.388Z,21.10
2019-05-14T13:46:20.315Z,21.30
2019-05-14T13:48:50.245Z,21.40
2019-05-14T13:51:19.868Z,21.60
2019-05-14T13:53:49.978Z,21.90
2019-05-14T13:56:19.537Z,21.70
2019-05-14T13:58:49.198Z,21.50
2019-05-14T14:01:19.478Z,21.50
2019-05-14T14:04:02.547Z,21.50
2019-05-14T14:06:20.969Z,21.70
2019-05-14T14:08:50.506Z,21.50
2019-05-14T14:11:19.891Z,21.50
2019-05-14T14:13:49.293Z,21.70
2019-05-14T14:16:19.661Z,21.70
2019-05-14T14:18:50.294Z,21.60
2019-05-14T14:21:20.194Z,21.60
2019-05-14T14:23:49.940Z,21.50
2019-05-14T14:26:19.404Z,21.70
2019-05-14T14:28:49.668Z,22.10
2019-05-14T14:31:19.250Z,22.00
2019-05-14T14:33:49.009Z,21.50
2019-05-14T14:36:19.984Z,21.20
2019-05-14T14:38:49.924Z,21.20
2019-05-14T14:41:19.896Z,21.50
2019-05-14T14:43:53.218Z,21.40
2019-05-14T14:46:20.447Z,21.40
2019-05-14T14:48:49.944Z,21.80
2019-05-14T14:51:19.687Z,21.90
2019-05-14T14:53:59.427Z,22.00
2019-05-14T14:56:20.397Z,21.80
2019-05-14T14:58:49.810Z,21.90
2019-05-14T15:01:19.857Z,22.00
2019-05-14T15:03:50.658Z,22.30
2019-05-14T15:06:20.817Z,22.00
2019-05-14T15:08:50.257Z,22.00
2019-05-14T15:11:19.620Z,22.00
2019-05-14T15:13:49.265Z,22.20
2019-05-14T15:16:19.981Z,22.00
2019-05-14T15:18:50.019Z,21.70
2019-05-14T15:21:19.682Z,22.10
2019-05-14T15:24:06.230Z,22.10
2019-05-14T15:26:20.275Z,22.20
2019-05-14T15:28:49.852Z,22.40
2019-05-14T15:31:19.449Z,22.40
2019-05-14T15:33:51.006Z,22.30
2019-05-14T15:36:20.448Z,22.10
2019-05-14T15:38:49.819Z,22.20
2019-05-14T15:41:20.093Z,22.00
2019-05-14T15:43:49.843Z,21.60
2019-05-14T15:46:19.233Z,21.60
2019-05-14T15:48:48.995Z,21.70
2019-05-14T15:51:19.474Z,21.10
2019-05-14T15:54:05.445Z,21.30
2019-05-14T15:56:20.303Z,21.10
2019-05-14T15:58:49.682Z,21.10
2019-05-14T16:01:19.498Z,21.10
2019-05-14T16:03:48.934Z,21.10
2019-05-14T16:06:19.364Z,21.00
2019-05-14T16:08:49.116Z,21.00
2019-05-14T16:11:18.830Z,21.10
2019-05-14T16:13:49.422Z,20.80
2019-05-14T16:16:19.669Z,21.00
2019-05-14T16:18:49.303Z,20.90
2019-05-14T16:21:18.678Z,20.50
2019-05-14T16:23:48.064Z,20.50
2019-05-14T16:26:18.733Z,20.40
2019-05-14T16:28:48.310Z,20.50
2019-05-14T16:31:18.428Z,20.60
2019-05-14T16:33:49.512Z,20.30
2019-05-14T16:36:19.200Z,20.40
2019-05-14T16:38:48.586Z,20.40
2019-05-14T16:41:18.593Z,20.30
2019-05-14T16:43:49.387Z,20.30
2019-05-14T16:46:19.078Z,20.40
2019-05-14T16:48:48.997Z,20.50
2019-05-14T16:51:19.230Z,20.30
2019-05-14T16:53:49.079Z,20.50
2019-05-14T16:56:19.218Z,20.60
2019-05-14T16:58:48.951Z,20.60
2019-05-14T17:01:19.290Z,20.60
2019-05-14T17:03:49.734Z,20.50
2019-05-14T17:06:19.424Z,20.60
2019-05-14T17:08:49.244Z,20.60
2019-05-14T17:11:18.795Z,20.60
2019-05-14T17:13:48.894Z,20.50
2019-05-14T17:16:19.586Z,20.40
2019-05-14T17:18:49.191Z,20.40
2019-05-14T17:21:18.594Z,20.40
2019-05-14T17:23:48.833Z,20.40
2019-05-14T17:26:18.855Z,20.20
2019-05-14T17:28:48.870Z,20.40
2019-05-14T17:31:19.220Z,20.10
2019-05-14T17:33:49.317Z,19.90
2019-05-14T17:36:19.071Z,19.50
2019-05-14T17:38:49.300Z,19.60
2019-05-14T17:41:19.661Z,19.60
2019-05-14T17:43:49.724Z,19.10
2019-05-14T17:46:19.272Z,19.10
2019-05-14T17:48:48.928Z,19.10
2019-05-14T17:51:18.412Z,18.90
2019-05-14T17:53:48.190Z,18.60
2019-05-14T17:56:19.074Z,18.40
2019-05-14T17:58:49.118Z,18.30
2019-05-14T18:01:19.101Z,18.10
2019-05-14T18:03:49.236Z,18.00
2019-05-14T18:06:19.011Z,17.90
2019-05-14T18:08:48.472Z,17.90
2019-05-14T18:11:19.119Z,17.60
2019-05-14T18:13:48.882Z,17.70
2019-05-14T18:16:19.242Z,17.50
2019-05-14T18:18:49.583Z,17.40
2019-05-14T18:21:19.323Z,17.40
2019-05-14T18:23:49.338Z,17.30
2019-05-14T18:26:19.190Z,17.20
2019-05-14T18:28:48.697Z,17.10
2019-05-14T18:31:20.235Z,17.00
2019-05-14T18:33:49.533Z,17.00
2019-05-14T18:36:19.347Z,16.90
2019-05-14T18:38:49.496Z,16.80
2019-05-14T18:41:19.206Z,16.60
2019-05-14T18:43:48.772Z,16.60
2019-05-14T18:46:19.230Z,16.40
2019-05-14T18:48:49.330Z,16.40
2019-05-14T18:51:19.748Z,16.40
2019-05-14T18:53:49.427Z,16.40
2019-05-14T18:56:23.906Z,16.20
2019-05-14T18:58:49.903Z,16.10
2019-05-14T19:01:19.783Z,16.10
2019-05-14T19:03:49.608Z,16.10
2019-05-14T19:06:19.427Z,16.00
2019-05-14T19:08:48.908Z,15.80
2019-05-14T19:11:18.321Z,15.80
2019-05-14T19:13:48.482Z,15.60
2019-05-14T19:16:18.083Z,15.50
2019-05-14T19:18:48.942Z,15.40
2019-05-14T19:21:18.429Z,15.40
2019-05-14T19:23:49.173Z,15.30
2019-05-14T19:26:33.057Z,15.20
2019-05-14T19:28:49.806Z,15.20
2019-05-14T19:31:19.339Z,15.10
2019-05-14T19:33:48.893Z,15.00
2019-05-14T19:36:18.819Z,14.90
2019-05-14T19:38:48.365Z,14.80
2019-05-14T19:41:20.925Z,14.70
2019-05-14T19:43:48.810Z,14.60
2019-05-14T19:46:18.209Z,14.60
2019-05-14T19:48:48.353Z,14.50
2019-05-14T19:51:18.813Z,14.50
2019-05-14T19:53:50.555Z,14.40
2019-05-14T19:56:19.556Z,14.30
2019-05-14T19:58:48.921Z,14.20
2019-05-14T20:01:19.328Z,14.10
2019-05-14T20:03:48.883Z,14.00
2019-05-14T20:06:18.833Z,14.00
2019-05-14T20:08:48.721Z,13.90
2019-05-14T20:11:19.305Z,13.90
2019-05-14T20:13:48.859Z,13.80
2019-05-14T20:16:18.515Z,13.70
2019-05-14T20:18:48.801Z,13.70
2019-05-14T20:21:18.314Z,13.60
2019-05-14T20:23:48.248Z,13.50
2019-05-14T20:26:17.737Z,13.50
2019-05-14T20:28:48.427Z,13.50
2019-05-14T20:31:18.153Z,13.40
2019-05-14T20:33:48.578Z,13.30
2019-05-14T20:36:18.742Z,13.20
2019-05-14T20:38:48.318Z,13.20
2019-05-14T20:41:18.111Z,13.10
2019-05-14T20:43:47.966Z,13.10
2019-05-14T20:46:18.641Z,13.00
2019-05-14T20:48:48.308Z,13.00
2019-05-14T20:51:18.591Z,13.00
2019-05-14T20:53:48.818Z,12.90
2019-05-14T20:56:18.962Z,12.90
2019-05-14T20:58:48.482Z,12.80
2019-05-14T21:01:18.533Z,12.80
2019-05-14T21:03:48.514Z,12.70
2019-05-14T21:06:18.819Z,12.60
2019-05-14T21:08:49.050Z,12.60
2019-05-14T21:11:19.200Z,12.50
2019-05-14T21:13:50.351Z,12.50
2019-05-14T21:16:19.879Z,12.40
2019-05-14T21:18:49.305Z,12.40
2019-05-14T21:21:18.760Z,12.30
2019-05-14T21:23:48.984Z,12.30
2019-05-14T21:26:19.360Z,12.20
2019-05-14T21:28:49.077Z,12.20
2019-05-14T21:31:18.506Z,12.20
2019-05-14T21:33:48.949Z,12.10
2019-05-14T21:36:19.491Z,12.00
2019-05-14T21:38:49.194Z,12.00
2019-05-14T21:41:20.469Z,12.00
2019-05-14T21:43:50.052Z,11.90
2019-05-14T21:46:19.601Z,11.90
2019-05-14T21:48:49.130Z,11.80
2019-05-14T21:51:18.549Z,11.80
2019-05-14T21:53:48.393Z,11.70
2019-05-14T21:56:21.523Z,11.70
2019-05-14T21:58:49.132Z,11.60
2019-05-14T22:01:19.134Z,11.60
2019-05-14T22:03:48.708Z,11.50
2019-05-14T22:06:18.555Z,11.50
2019-05-14T22:08:48.808Z,11.50
2019-05-14T22:11:18.966Z,11.40
2019-05-14T22:13:49.613Z,11.30
2019-05-14T22:16:19.281Z,11.30
2019-05-14T22:18:48.708Z,11.20
2019-05-14T22:21:18.492Z,11.20
2019-05-14T22:23:48.259Z,11.10
2019-05-14T22:26:18.656Z,11.10
2019-05-14T22:28:48.210Z,11.00
2019-05-14T22:31:19.305Z,11.00
2019-05-14T22:33:48.835Z,10.90
2019-05-14T22:36:21.342Z,10.90
2019-05-14T22:38:49.683Z,10.80
2019-05-14T22:41:19.106Z,10.80
2019-05-14T22:43:51.378Z,10.70
2019-05-14T22:46:19.671Z,10.70
2019-05-14T22:48:51.656Z,10.60
2019-05-14T22:51:20.245Z,10.60
2019-05-14T22:53:49.661Z,10.50
2019-05-14T22:56:19.084Z,10.40
2019-05-14T22:58:48.973Z,10.40
2019-05-14T23:01:18.685Z,10.30
2019-05-14T23:03:49.086Z,10.30
2019-05-14T23:06:18.977Z,10.20
2019-05-14T23:08:48.878Z,10.20
2019-05-14T23:11:19.775Z,10.10
2019-05-14T23:13:49.393Z,10.10
2019-05-14T23:16:31.063Z,10.00
2019-05-14T23:18:49.958Z,10.00
2019-05-14T23:21:19.384Z,10.00
2019-05-14T23:23:48.798Z,9.90
2019-05-14T23:26:19.263Z,9.90
2019-05-14T23:28:49.273Z,9.80
2019-05-14T23:31:18.867Z,9.80
2019-05-14T23:33:48.975Z,9.80
2019-05-14T23:36:18.887Z,9.70
2019-05-14T23:38:49.342Z,9.70
2019-05-14T23:41:19.376Z,9.70
2019-05-14T23:43:48.795Z,9.60
2019-05-14T23:46:18.428Z,9.60
2019-05-14T23:48:48.457Z,9.50
2019-05-14T23:51:18.340Z,9.50
2019-05-14T23:53:48.294Z,9.50
2019-05-14T23:56:19.421Z,9.50
2019-05-14T23:58:55.735Z,9.40
